createdAt,value
2022-08-14T00:01:23.820Z,16.48
2022-08-14T00:03:56.594Z,16.48
2022-08-14T00:06:29.515Z,16.48
2022-08-14T00:09:01.921Z,16.45
2022-08-14T00:11:34.430Z,16.42
2022-08-14T00:14:09.161Z,16.41
2022-08-14T00:16:50.434Z,16.42
2022-08-14T00:19:28.219Z,16.43
2022-08-14T00:22:01.159Z,16.47
2022-08-14T00:24:33.684Z,16.50
2022-08-14T00:27:07.507Z,16.50
2022-08-14T00:29:43.026Z,16.40
2022-08-14T00:32:55.654Z,16.49
2022-08-14T00:35:10.102Z,16.51
2022-08-14T00:37:46.002Z,16.54
2022-08-14T00:40:32.926Z,16.53
2022-08-14T00:43:07.160Z,16.50
2022-08-14T00:45:40.233Z,16.48
2022-08-14T00:48:34.263Z,16.49
2022-08-14T00:51:10.198Z,16.49
2022-08-14T00:53:42.911Z,16.48
2022-08-14T00:56:17.690Z,16.51
2022-08-14T00:58:51.691Z,16.49
2022-08-14T01:01:25.097Z,16.51
2022-08-14T01:04:02.468Z,16.50
2022-08-14T01:06:38.366Z,16.55
2022-08-14T01:09:13.052Z,16.56
2022-08-14T01:11:57.128Z,16.61
2022-08-14T01:14:35.756Z,16.56
2022-08-14T01:17:08.938Z,16.57
2022-08-14T01:20:00.162Z,16.57
2022-08-14T01:22:33.898Z,16.59
2022-08-14T01:25:07.850Z,16.55
2022-08-14T01:27:56.771Z,16.55
2022-08-14T01:30:35.362Z,16.52
2022-08-14T01:33:12.258Z,16.50
2022-08-14T01:36:04.500Z,16.51
2022-08-14T01:38:44.158Z,16.53
2022-08-14T01:41:29.882Z,16.57
2022-08-14T01:44:07.365Z,16.52
2022-08-14T01:47:01.757Z,16.45
2022-08-14T01:49:46.018Z,16.45
2022-08-14T01:52:34.461Z,16.42
2022-08-14T01:55:15.494Z,16.38
2022-08-14T01:58:00.827Z,16.40
2022-08-14T02:00:40.299Z,16.36
2022-08-14T02:03:13.751Z,16.35
2022-08-14T02:05:48.935Z,16.32
2022-08-14T02:08:22.522Z,16.33
2022-08-14T02:11:21.799Z,16.26
2022-08-14T02:13:57.805Z,16.23
2022-08-14T02:16:33.431Z,16.22
2022-08-14T02:19:08.782Z,16.15
2022-08-14T02:21:48.849Z,16.04
2022-08-14T02:24:40.196Z,16.03
2022-08-14T02:28:22.970Z,15.93
2022-08-14T02:30:07.891Z,15.93
2022-08-14T02:32:40.602Z,15.94
2022-08-14T02:35:17.891Z,15.93
2022-08-14T02:37:50.561Z,15.89
2022-08-14T02:40:32.539Z,15.90
2022-08-14T02:43:07.980Z,15.89
2022-08-14T02:45:44.769Z,15.81
2022-08-14T02:49:02.469Z,15.79
2022-08-14T02:51:14.251Z,15.71
2022-08-14T02:53:47.116Z,15.69
2022-08-14T02:56:30.279Z,15.70
2022-08-14T02:59:13.478Z,15.70
2022-08-14T03:01:50.911Z,15.77
2022-08-14T03:04:27.721Z,15.77
2022-08-14T03:07:06.438Z,15.76
2022-08-14T03:10:24.594Z,15.71
2022-08-14T03:12:33.527Z,15.68
2022-08-14T03:15:13.998Z,15.69
2022-08-14T03:17:56.863Z,15.69
2022-08-14T03:20:30.664Z,15.65
2022-08-14T03:23:04.454Z,15.71
2022-08-14T03:25:37.708Z,15.68
2022-08-14T03:28:14.818Z,15.79
2022-08-14T03:31:03.603Z,15.73
2022-08-14T03:33:37.737Z,15.71
2022-08-14T03:37:51.073Z,15.68
2022-08-14T03:39:14.473Z,15.67
2022-08-14T03:41:59.986Z,15.70
2022-08-14T03:45:19.257Z,15.69
2022-08-14T03:47:28.648Z,15.68
2022-08-14T03:50:27.586Z,15.77
2022-08-14T03:53:03.921Z,15.79
2022-08-14T03:55:38.247Z,15.77
2022-08-14T03:58:11.283Z,15.79
2022-08-14T04:00:55.981Z,15.76
2022-08-14T04:03:29.171Z,15.78
2022-08-14T04:06:01.983Z,15.68
2022-08-14T04:08:36.198Z,15.76
2022-08-14T04:11:10.545Z,15.76
2022-08-14T04:13:44.281Z,15.79
2022-08-14T04:16:20.483Z,15.81
2022-08-14T04:18:56.642Z,15.87
2022-08-14T04:21:29.143Z,15.89
2022-08-14T04:24:05.424Z,15.84
2022-08-14T04:26:43.237Z,15.88
2022-08-14T04:29:16.079Z,15.90
2022-08-14T04:33:01.886Z,15.96
2022-08-14T04:34:51.876Z,15.96
2022-08-14T04:37:45.006Z,15.96
2022-08-14T04:40:36.111Z,15.99
2022-08-14T04:43:38.267Z,16.04
2022-08-14T04:46:55.838Z,16.05
2022-08-14T04:49:07.871Z,16.05
2022-08-14T04:51:55.592Z,16.10
2022-08-14T04:54:28.561Z,16.13
2022-08-14T04:57:01.158Z,16.14
2022-08-14T04:59:34.662Z,16.17
2022-08-14T05:02:07.499Z,16.19
2022-08-14T05:04:45.298Z,16.19
2022-08-14T05:07:46.883Z,16.23
2022-08-14T05:10:25.477Z,16.24
2022-08-14T05:13:13.781Z,16.26
2022-08-14T05:15:48.343Z,16.27
2022-08-14T05:19:16.937Z,16.26
2022-08-14T05:22:00.222Z,16.24
2022-08-14T05:24:17.835Z,16.29
2022-08-14T05:26:51.431Z,16.30
2022-08-14T05:29:25.065Z,16.34
2022-08-14T05:31:58.180Z,16.35
2022-08-14T05:34:32.022Z,16.37
2022-08-14T05:37:06.704Z,16.41
2022-08-14T05:39:41.037Z,16.41
2022-08-14T05:42:26.651Z,16.47
2022-08-14T05:44:59.595Z,16.45
2022-08-14T05:47:33.940Z,16.50
2022-08-14T05:50:17.521Z,16.56
2022-08-14T05:52:52.115Z,16.56
2022-08-14T05:55:25.498Z,16.57
2022-08-14T05:58:00.259Z,16.56
2022-08-14T06:00:37.074Z,16.59
2022-08-14T06:03:14.184Z,16.66
2022-08-14T06:05:51.973Z,16.67
2022-08-14T06:08:35.734Z,16.69
2022-08-14T06:11:10.878Z,16.73
2022-08-14T06:13:52.614Z,16.72
2022-08-14T06:16:25.022Z,16.75
2022-08-14T06:18:59.561Z,16.73
2022-08-14T06:21:32.081Z,16.61
2022-08-14T06:24:05.735Z,16.44
2022-08-14T06:26:43.706Z,16.43
2022-08-14T06:29:24.578Z,16.27
2022-08-14T06:32:00.404Z,16.19
2022-08-14T06:35:03.921Z,16.18
2022-08-14T06:37:26.866Z,16.12
2022-08-14T06:39:59.864Z,16.15
2022-08-14T06:42:42.629Z,16.07
2022-08-14T06:45:15.951Z,15.96
2022-08-14T06:47:50.614Z,16.08
2022-08-14T06:50:28.222Z,16.19
2022-08-14T06:53:01.176Z,16.13
2022-08-14T06:55:33.702Z,16.13
2022-08-14T06:58:24.833Z,16.19
2022-08-14T07:01:27.143Z,16.18
2022-08-14T07:04:23.037Z,16.26
2022-08-14T07:06:58.516Z,16.32
2022-08-14T07:09:43.731Z,16.38
2022-08-14T07:12:54.905Z,16.43
2022-08-14T07:15:16.211Z,16.47
2022-08-14T07:17:52.017Z,16.48
2022-08-14T07:20:30.918Z,16.53
2022-08-14T07:23:09.191Z,16.57
2022-08-14T07:25:45.169Z,16.55
2022-08-14T07:28:22.826Z,16.58
2022-08-14T07:30:57.584Z,16.59
2022-08-14T07:33:41.859Z,16.58
2022-08-14T07:36:30.077Z,16.63
2022-08-14T07:39:12.440Z,16.71
2022-08-14T07:41:45.899Z,16.75
2022-08-14T07:44:32.366Z,16.78
2022-08-14T07:47:08.879Z,16.88
2022-08-14T07:49:41.971Z,16.92
2022-08-14T07:52:22.179Z,17.00
2022-08-14T07:55:04.868Z,17.08
2022-08-14T07:57:38.735Z,17.14
2022-08-14T08:00:30.848Z,17.21
2022-08-14T08:03:09.426Z,17.30
2022-08-14T08:05:41.946Z,17.36
2022-08-14T08:08:27.189Z,17.39
2022-08-14T08:11:03.722Z,17.37
2022-08-14T08:13:42.069Z,17.46
2022-08-14T08:16:22.862Z,17.50
2022-08-14T08:19:02.950Z,17.55
2022-08-14T08:21:43.566Z,17.52
2022-08-14T08:24:19.790Z,17.35
2022-08-14T08:26:53.301Z,17.22
2022-08-14T08:29:28.909Z,17.39
2022-08-14T08:32:05.349Z,17.36
2022-08-14T08:34:46.290Z,17.40
2022-08-14T08:37:18.885Z,17.37
2022-08-14T08:40:02.596Z,17.51
2022-08-14T08:42:38.378Z,17.63
2022-08-14T08:45:17.205Z,17.70
2022-08-14T08:47:51.105Z,17.67
2022-08-14T08:50:31.897Z,17.83
2022-08-14T08:53:04.993Z,18.00
2022-08-14T08:55:39.914Z,18.01
2022-08-14T08:58:25.201Z,18.02
2022-08-14T09:00:59.854Z,18.20
2022-08-14T09:03:32.284Z,18.20
2022-08-14T09:06:26.615Z,18.35
2022-08-14T09:08:58.053Z,18.33
2022-08-14T09:11:30.728Z,18.47
2022-08-14T09:14:04.083Z,18.55
2022-08-14T09:16:38.162Z,18.25
2022-08-14T09:19:12.443Z,18.25
2022-08-14T09:21:46.257Z,18.22
2022-08-14T09:24:28.245Z,18.21
2022-08-14T09:27:06.854Z,18.41
2022-08-14T09:29:41.346Z,18.39
2022-08-14T09:32:58.002Z,18.50
2022-08-14T09:35:23.312Z,18.67
2022-08-14T09:38:15.640Z,18.70
2022-08-14T09:41:08.152Z,18.86
2022-08-14T09:43:54.835Z,18.94
2022-08-14T09:46:27.434Z,19.09
2022-08-14T09:49:00.594Z,19.31
2022-08-14T09:51:51.766Z,19.55
2022-08-14T09:54:38.012Z,19.75
2022-08-14T09:57:10.814Z,19.90
2022-08-14T09:59:45.914Z,20.06
2022-08-14T10:02:23.404Z,20.25
2022-08-14T10:05:00.578Z,20.55
2022-08-14T10:07:36.128Z,20.68
2022-08-14T10:10:23.356Z,20.95
2022-08-14T10:12:58.409Z,21.01
2022-08-14T10:15:32.895Z,21.15
2022-08-14T10:18:08.763Z,21.26
2022-08-14T10:20:47.029Z,21.25
2022-08-14T10:23:24.955Z,21.17
2022-08-14T10:26:05.782Z,21.39
2022-08-14T10:29:18.135Z,21.42
2022-08-14T10:31:40.274Z,21.70
2022-08-14T10:34:20.350Z,21.75
2022-08-14T10:37:14.728Z,21.84
2022-08-14T10:40:05.851Z,21.68
2022-08-14T10:42:46.228Z,21.98
2022-08-14T10:45:20.682Z,22.28
2022-08-14T10:48:09.275Z,22.30
2022-08-14T10:50:50.730Z,22.43
2022-08-14T10:53:32.809Z,22.24
2022-08-14T10:56:21.446Z,22.45
2022-08-14T10:59:03.637Z,22.45
2022-08-14T11:01:41.073Z,22.33
2022-08-14T11:04:25.935Z,22.47
2022-08-14T11:06:59.887Z,22.40
2022-08-14T11:09:32.537Z,22.48
2022-08-14T11:12:34.903Z,22.31
2022-08-14T11:15:02.737Z,22.55
2022-08-14T11:17:35.694Z,22.52
2022-08-14T11:20:13.971Z,22.15
2022-08-14T11:22:57.901Z,22.18
2022-08-14T11:25:43.666Z,22.21
2022-08-14T11:28:19.681Z,22.38
2022-08-14T11:31:13.567Z,22.47
2022-08-14T11:33:50.519Z,22.64
2022-08-14T11:36:35.391Z,22.69
2022-08-14T11:39:33.669Z,22.62
2022-08-14T11:42:56.240Z,22.59
2022-08-14T11:45:17.025Z,22.65
2022-08-14T11:48:10.675Z,22.66
2022-08-14T11:50:48.395Z,22.59
2022-08-14T11:53:29.543Z,22.47
2022-08-14T11:56:06.301Z,22.38
2022-08-14T11:58:39.728Z,22.39
2022-08-14T12:01:14.458Z,22.39
2022-08-14T12:03:52.164Z,22.27
2022-08-14T12:06:39.675Z,22.24
2022-08-14T12:09:14.050Z,22.19
2022-08-14T12:11:51.682Z,22.23
2022-08-14T12:14:30.440Z,22.29
2022-08-14T12:17:12.069Z,22.22
2022-08-14T12:19:51.126Z,21.76
2022-08-14T12:22:34.190Z,21.82
2022-08-14T12:25:11.369Z,21.69
2022-08-14T12:27:53.311Z,21.68
2022-08-14T12:30:38.116Z,21.89
2022-08-14T12:33:23.951Z,22.12
2022-08-14T12:35:59.777Z,22.38
2022-08-14T12:38:35.919Z,22.40
2022-08-14T12:41:20.397Z,22.21
2022-08-14T12:43:56.626Z,22.35
2022-08-14T12:46:31.365Z,22.35
2022-08-14T12:49:09.813Z,22.53
2022-08-14T12:51:55.092Z,22.74
2022-08-14T12:54:29.197Z,23.00
2022-08-14T12:57:07.866Z,23.12
2022-08-14T12:59:42.699Z,23.26
2022-08-14T13:02:21.912Z,23.17
2022-08-14T13:04:58.723Z,23.19
2022-08-14T13:07:32.521Z,23.11
2022-08-14T13:10:47.785Z,22.96
2022-08-14T13:13:13.698Z,22.88
2022-08-14T13:15:57.164Z,22.98
2022-08-14T13:18:31.228Z,23.10
2022-08-14T13:21:04.951Z,23.09
2022-08-14T13:23:43.221Z,22.95
2022-08-14T13:26:19.209Z,22.91
2022-08-14T13:29:02.513Z,22.79
2022-08-14T13:31:38.725Z,22.87
2022-08-14T13:34:13.366Z,22.84
2022-08-14T13:36:56.985Z,22.86
2022-08-14T13:39:37.692Z,22.82
2022-08-14T13:42:14.009Z,22.71
2022-08-14T13:44:50.534Z,22.64
2022-08-14T13:47:28.931Z,22.60
2022-08-14T13:50:06.186Z,22.59
2022-08-14T13:52:52.214Z,22.46
2022-08-14T13:55:29.398Z,22.50
2022-08-14T13:58:05.053Z,22.60
2022-08-14T14:00:52.842Z,22.72
2022-08-14T14:03:30.437Z,22.62
2022-08-14T14:06:05.609Z,22.59
2022-08-14T14:08:47.349Z,22.45
2022-08-14T14:11:23.424Z,22.43
2022-08-14T14:13:58.853Z,22.51
2022-08-14T14:16:32.260Z,22.51
2022-08-14T14:19:09.722Z,22.53
2022-08-14T14:21:44.197Z,22.33
2022-08-14T14:24:16.995Z,22.39
2022-08-14T14:26:51.478Z,22.34
2022-08-14T14:29:26.433Z,22.36
2022-08-14T14:32:02.671Z,22.33
2022-08-14T14:34:37.366Z,22.34
2022-08-14T14:37:14.808Z,22.40
2022-08-14T14:40:53.195Z,22.36
2022-08-14T14:42:48.198Z,22.26
2022-08-14T14:45:26.086Z,22.27
2022-08-14T14:48:00.211Z,22.25
2022-08-14T14:50:33.322Z,22.24
2022-08-14T14:53:12.876Z,22.23
2022-08-14T14:56:46.686Z,22.00
2022-08-14T14:58:42.482Z,22.06
2022-08-14T15:01:21.534Z,22.09
2022-08-14T15:03:54.752Z,22.14
2022-08-14T15:06:30.509Z,22.16
2022-08-14T15:09:08.948Z,22.12
2022-08-14T15:11:41.595Z,22.11
2022-08-14T15:14:55.275Z,22.00
2022-08-14T15:17:12.550Z,21.93
2022-08-14T15:19:56.288Z,21.92
2022-08-14T15:22:29.460Z,21.92
2022-08-14T15:25:03.033Z,21.95
2022-08-14T15:27:36.651Z,21.99
2022-08-14T15:30:23.872Z,21.99
2022-08-14T15:32:57.022Z,21.95
2022-08-14T15:35:34.094Z,21.94
2022-08-14T15:38:08.055Z,21.90
2022-08-14T15:40:41.455Z,21.83
2022-08-14T15:43:13.987Z,21.81
2022-08-14T15:45:49.772Z,21.75
2022-08-14T15:48:23.375Z,21.67
2022-08-14T15:50:56.377Z,21.56
2022-08-14T15:53:31.426Z,21.53
2022-08-14T15:56:05.398Z,21.48
2022-08-14T15:58:42.359Z,21.43
2022-08-14T16:01:43.583Z,21.39
2022-08-14T16:04:17.279Z,21.32
2022-08-14T16:06:55.360Z,21.22
2022-08-14T16:09:28.428Z,21.26
2022-08-14T16:12:01.174Z,21.23
2022-08-14T16:14:33.752Z,21.20
2022-08-14T16:17:08.264Z,21.18
2022-08-14T16:19:44.188Z,21.13
2022-08-14T16:22:58.579Z,21.11
2022-08-14T16:25:10.847Z,20.96
2022-08-14T16:27:50.943Z,20.97
2022-08-14T16:30:27.825Z,20.95
2022-08-14T16:33:03.952Z,20.83
2022-08-14T16:35:41.844Z,20.77
2022-08-14T16:38:35.784Z,20.73
2022-08-14T16:41:25.473Z,20.70
2022-08-14T16:44:01.334Z,20.71
2022-08-14T16:46:38.212Z,20.70
2022-08-14T16:49:17.367Z,20.64
2022-08-14T16:51:52.672Z,20.58
2022-08-14T16:54:35.085Z,20.61
2022-08-14T16:57:21.687Z,20.55
2022-08-14T16:59:57.495Z,20.47
2022-08-14T17:02:36.622Z,20.33
2022-08-14T17:05:17.890Z,20.21
2022-08-14T17:08:32.887Z,20.09
2022-08-14T17:11:11.041Z,19.99
2022-08-14T17:13:59.348Z,19.86
2022-08-14T17:16:37.312Z,19.78
2022-08-14T17:19:14.340Z,19.65
2022-08-14T17:21:52.339Z,19.68
2022-08-14T17:24:56.261Z,19.60
2022-08-14T17:27:22.022Z,19.38
2022-08-14T17:29:57.557Z,19.41
2022-08-14T17:32:56.749Z,19.48
2022-08-14T17:35:27.114Z,19.50
2022-08-14T17:38:39.093Z,19.50
2022-08-14T17:41:22.801Z,19.43
2022-08-14T17:46:35.544Z,19.42
2022-08-14T17:49:16.799Z,19.38
2022-08-14T17:52:01.024Z,19.33
2022-08-14T17:54:37.180Z,19.34
2022-08-14T17:57:13.330Z,19.41
2022-08-14T17:59:48.248Z,19.32
2022-08-14T18:02:31.323Z,19.34
2022-08-14T18:05:08.218Z,19.31
2022-08-14T18:07:50.613Z,19.35
2022-08-14T18:10:56.225Z,19.38
2022-08-14T18:13:51.205Z,19.42
2022-08-14T18:16:23.739Z,19.44
2022-08-14T18:18:56.307Z,19.44
2022-08-14T18:21:56.828Z,19.46
2022-08-14T18:24:29.343Z,19.51
2022-08-14T18:27:08.786Z,19.51
2022-08-14T18:29:55.446Z,19.49
2022-08-14T18:32:47.075Z,19.50
2022-08-14T18:35:45.887Z,19.46
2022-08-14T18:38:46.082Z,19.44
2022-08-14T18:41:36.628Z,19.42
2022-08-14T18:44:11.433Z,19.44
2022-08-14T18:47:21.621Z,19.37
2022-08-14T18:50:26.401Z,19.36
2022-08-14T18:53:05.834Z,19.39
2022-08-14T18:55:53.872Z,19.33
2022-08-14T18:58:34.121Z,19.31
2022-08-14T19:01:22.363Z,19.26
2022-08-14T19:03:59.638Z,19.21
2022-08-14T19:06:56.290Z,19.18
2022-08-14T19:09:52.336Z,19.23
2022-08-14T19:12:56.964Z,19.22
2022-08-14T19:15:32.756Z,19.10
2022-08-14T19:18:26.521Z,19.10
2022-08-14T19:21:02.562Z,19.01
2022-08-14T19:24:27.115Z,19.03
2022-08-14T19:27:19.291Z,19.08
2022-08-14T19:30:25.429Z,19.07
2022-08-14T19:33:08.704Z,19.05
2022-08-14T19:35:55.467Z,18.97
2022-08-14T19:38:57.412Z,18.80
2022-08-14T19:41:33.968Z,18.78
2022-08-14T19:44:10.442Z,18.75
2022-08-14T19:47:01.696Z,18.77
2022-08-14T19:50:25.025Z,18.69
2022-08-14T19:52:39.523Z,18.54
2022-08-14T19:55:16.863Z,18.58
2022-08-14T19:57:58.393Z,18.55
2022-08-14T20:00:31.658Z,18.49
2022-08-14T20:03:09.862Z,18.50
2022-08-14T20:05:46.276Z,18.41
2022-08-14T20:10:58.535Z,18.25
2022-08-14T20:12:02.092Z,18.28
2022-08-14T20:14:28.273Z,18.27
2022-08-14T20:17:06.557Z,18.23
2022-08-14T20:19:41.684Z,18.01
2022-08-14T20:22:36.465Z,18.02
2022-08-14T20:25:13.229Z,18.00
2022-08-14T20:27:48.993Z,17.84
2022-08-14T20:30:34.237Z,17.76
2022-08-14T20:33:11.486Z,17.67
2022-08-14T20:35:48.371Z,17.75
2022-08-14T20:38:31.406Z,17.61
2022-08-14T20:41:10.588Z,17.68
2022-08-14T20:44:13.182Z,17.74
2022-08-14T20:46:59.878Z,17.88
2022-08-14T20:49:34.863Z,17.89
2022-08-14T20:52:19.128Z,17.94
2022-08-14T20:54:54.267Z,17.98
2022-08-14T20:57:43.597Z,18.01
2022-08-14T21:00:37.693Z,18.05
2022-08-14T21:03:35.951Z,18.07
2022-08-14T21:07:23.557Z,18.10
2022-08-14T21:10:05.692Z,18.08
2022-08-14T21:12:34.443Z,18.13
2022-08-14T21:15:11.420Z,18.16
2022-08-14T21:17:48.101Z,18.22
2022-08-14T21:20:26.928Z,18.23
2022-08-14T21:23:02.859Z,18.26
2022-08-14T21:25:37.534Z,18.20
2022-08-14T21:28:30.172Z,18.30
2022-08-14T21:31:07.635Z,18.32
2022-08-14T21:33:43.047Z,18.27
2022-08-14T21:36:21.940Z,18.19
2022-08-14T21:38:54.681Z,18.18
2022-08-14T21:41:43.468Z,18.16
2022-08-14T21:44:23.437Z,18.14
2022-08-14T21:47:16.795Z,18.17
2022-08-14T21:49:50.950Z,18.18
2022-08-14T21:52:51.557Z,18.20
2022-08-14T21:55:23.705Z,18.15
2022-08-14T21:58:46.399Z,18.10
2022-08-14T22:00:49.113Z,18.08
2022-08-14T22:03:24.126Z,18.02
2022-08-14T22:05:57.068Z,17.95
2022-08-14T22:08:30.179Z,17.92
2022-08-14T22:11:02.663Z,17.93
2022-08-14T22:13:35.128Z,17.88
2022-08-14T22:17:00.299Z,17.84
2022-08-14T22:19:18.331Z,17.72
2022-08-14T22:21:52.926Z,17.74
2022-08-14T22:24:38.652Z,17.73
2022-08-14T22:27:18.962Z,17.75
2022-08-14T22:29:54.787Z,17.71
2022-08-14T22:32:55.957Z,17.78
2022-08-14T22:35:23.334Z,17.76
2022-08-14T22:38:34.765Z,17.73
2022-08-14T22:41:19.643Z,17.67
2022-08-14T22:43:43.263Z,17.64
2022-08-14T22:46:20.575Z,17.68
2022-08-14T22:48:53.235Z,17.58
2022-08-14T22:51:25.709Z,17.60
2022-08-14T22:54:00.538Z,17.53
2022-08-14T22:56:34.118Z,17.49
2022-08-14T22:59:09.696Z,17.44
2022-08-14T23:01:56.444Z,17.45
2022-08-14T23:04:34.829Z,17.44
2022-08-14T23:09:00.257Z,17.38
2022-08-14T23:10:32.762Z,17.26
2022-08-14T23:13:07.541Z,17.26
2022-08-14T23:15:40.067Z,17.26
2022-08-14T23:18:15.863Z,17.24
2022-08-14T23:20:48.440Z,17.20
2022-08-14T23:23:22.332Z,17.17
2022-08-14T23:25:59.289Z,17.13
2022-08-14T23:28:58.192Z,17.14
2022-08-14T23:31:35.849Z,17.16
2022-08-14T23:34:20.686Z,17.11
2022-08-14T23:36:55.977Z,17.08
2022-08-14T23:39:31.865Z,17.07
2022-08-14T23:42:07.540Z,17.06
2022-08-14T23:44:40.727Z,17.08
2022-08-14T23:47:26.453Z,17.08
2022-08-14T23:50:04.245Z,16.98
2022-08-14T23:53:06.540Z,16.96
2022-08-14T23:55:33.856Z,16.87
2022-08-14T23:58:07.869Z,16.97
